sensor_id;sensor_type;location;lat;lon;timestamp;temperature;humidity
14008;DHT22;61651;45.508;12.232;2023-06-14T00:00:34;22.70;99.90
14008;DHT22;61651;45.508;12.232;2023-06-14T00:03:36;22.70;99.90
14008;DHT22;61651;45.508;12.232;2023-06-14T00:06:40;22.60;99.90
14008;DHT22;61651;45.508;12.232;2023-06-14T00:09:43;22.60;99.90
14008;DHT22;61651;45.508;12.232;2023-06-14T00:12:45;22.50;99.90
14008;DHT22;61651;45.508;12.232;2023-06-14T00:15:47;22.50;99.90
14008;DHT22;61651;45.508;12.232;2023-06-14T00:18:49;22.50;99.90
14008;DHT22;61651;45.508;12.232;2023-06-14T00:21:53;22.40;99.90
14008;DHT22;61651;45.508;12.232;2023-06-14T00:24:56;22.40;99.90
14008;DHT22;61651;45.508;12.232;2023-06-14T00:27:58;22.40;99.90
14008;DHT22;61651;45.508;12.232;2023-06-14T00:31:00;22.40;99.90
14008;DHT22;61651;45.508;12.232;2023-06-14T00:34:02;22.30;99.90
14008;DHT22;61651;45.508;12.232;2023-06-14T00:37:05;22.30;99.90
14008;DHT22;61651;45.508;12.232;2023-06-14T00:40:08;22.30;99.90
14008;DHT22;61651;45.508;12.232;2023-06-14T00:43:10;22.20;99.90
14008;DHT22;61651;45.508;12.232;2023-06-14T00:46:12;22.20;99.90
14008;DHT22;61651;45.508;12.232;2023-06-14T00:49:14;22.10;99.90
14008;DHT22;61651;45.508;12.232;2023-06-14T00:52:19;22.10;99.90
14008;DHT22;61651;45.508;12.232;2023-06-14T00:55:21;22.10;99.90
14008;DHT22;61651;45.508;12.232;2023-06-14T00:58:24;22.00;99.90
14008;DHT22;61651;45.508;12.232;2023-06-14T01:01:26;22.00;99.90
14008;DHT22;61651;45.508;12.232;2023-06-14T01:04:29;22.00;99.90
14008;DHT22;61651;45.508;12.232;2023-06-14T01:07:38;22.00;99.90
14008;DHT22;61651;45.508;12.232;2023-06-14T01:10:49;21.90;99.90
14008;DHT22;61651;45.508;12.232;2023-06-14T01:13:53;21.90;99.90
14008;DHT22;61651;45.508;12.232;2023-06-14T01:16:58;21.90;99.90
14008;DHT22;61651;45.508;12.232;2023-06-14T01:20:01;21.90;99.90
14008;DHT22;61651;45.508;12.232;2023-06-14T01:23:08;21.90;99.90
14008;DHT22;61651;45.508;12.232;2023-06-14T01:26:10;21.90;99.90
14008;DHT22;61651;45.508;12.232;2023-06-14T01:29:13;21.80;99.90
14008;DHT22;61651;45.508;12.232;2023-06-14T01:32:18;21.80;99.90
14008;DHT22;61651;45.508;12.232;2023-06-14T01:35:21;21.80;99.90
14008;DHT22;61651;45.508;12.232;2023-06-14T01:38:26;21.80;99.90
14008;DHT22;61651;45.508;12.232;2023-06-14T01:41:28;21.90;99.90
14008;DHT22;61651;45.508;12.232;2023-06-14T01:44:32;21.80;99.90
14008;DHT22;61651;45.508;12.232;2023-06-14T01:47:34;21.90;99.90
14008;DHT22;61651;45.508;12.232;2023-06-14T01:50:36;21.80;99.90
14008;DHT22;61651;45.508;12.232;2023-06-14T01:53:40;21.80;99.90
14008;DHT22;61651;45.508;12.232;2023-06-14T01:56:42;21.80;99.90
14008;DHT22;61651;45.508;12.232;2023-06-14T01:59:44;21.80;99.90
14008;DHT22;61651;45.508;12.232;2023-06-14T02:02:49;21.80;99.90
14008;DHT22;61651;45.508;12.232;2023-06-14T02:05:50;21.80;99.90
14008;DHT22;61651;45.508;12.232;2023-06-14T02:08:54;21.90;99.90
14008;DHT22;61651;45.508;12.232;2023-06-14T02:11:56;21.90;99.90
14008;DHT22;61651;45.508;12.232;2023-06-14T02:14:58;21.90;99.90
14008;DHT22;61651;45.508;12.232;2023-06-14T02:18:00;21.90;99.90
14008;DHT22;61651;45.508;12.232;2023-06-14T02:21:03;21.90;99.90
14008;DHT22;61651;45.508;12.232;2023-06-14T02:24:07;21.90;99.90
14008;DHT22;61651;45.508;12.232;2023-06-14T02:27:09;21.90;99.90
14008;DHT22;61651;45.508;12.232;2023-06-14T02:30:12;22.00;99.90
14008;DHT22;61651;45.508;12.232;2023-06-14T02:33:16;22.00;99.90
14008;DHT22;61651;45.508;12.232;2023-06-14T02:36:18;22.00;99.90
14008;DHT22;61651;45.508;12.232;2023-06-14T02:39:22;22.00;99.90
14008;DHT22;61651;45.508;12.232;2023-06-14T02:42:24;22.00;99.90
14008;DHT22;61651;45.508;12.232;2023-06-14T02:45:26;22.00;99.90
14008;DHT22;61651;45.508;12.232;2023-06-14T02:48:28;22.00;99.90
14008;DHT22;61651;45.508;12.232;2023-06-14T02:51:30;22.00;99.90
14008;DHT22;61651;45.508;12.232;2023-06-14T02:54:33;21.90;99.90
14008;DHT22;61651;45.508;12.232;2023-06-14T02:57:35;21.80;99.90
14008;DHT22;61651;45.508;12.232;2023-06-14T03:00:37;21.90;99.90
14008;DHT22;61651;45.508;12.232;2023-06-14T03:03:41;21.90;99.90
14008;DHT22;61651;45.508;12.232;2023-06-14T03:06:43;22.00;99.90
14008;DHT22;61651;45.508;12.232;2023-06-14T03:09:52;22.10;99.90
14008;DHT22;61651;45.508;12.232;2023-06-14T03:12:54;22.10;99.90
14008;DHT22;61651;45.508;12.232;2023-06-14T03:15:56;22.10;99.90
14008;DHT22;61651;45.508;12.232;2023-06-14T03:18:58;22.10;99.90
14008;DHT22;61651;45.508;12.232;2023-06-14T03:22:00;22.10;99.90
14008;DHT22;61651;45.508;12.232;2023-06-14T03:25:05;22.00;99.90
14008;DHT22;61651;45.508;12.232;2023-06-14T03:28:07;22.00;99.90
14008;DHT22;61651;45.508;12.232;2023-06-14T03:31:09;22.00;99.90
14008;DHT22;61651;45.508;12.232;2023-06-14T03:34:11;22.00;99.90
14008;DHT22;61651;45.508;12.232;2023-06-14T03:37:13;21.90;99.90
14008;DHT22;61651;45.508;12.232;2023-06-14T03:40:18;22.00;99.90
14008;DHT22;61651;45.508;12.232;2023-06-14T03:43:20;21.90;99.90
14008;DHT22;61651;45.508;12.232;2023-06-14T03:46:22;21.90;99.90
14008;DHT22;61651;45.508;12.232;2023-06-14T03:49:24;21.90;99.90
14008;DHT22;61651;45.508;12.232;2023-06-14T03:52:27;21.90;99.90
14008;DHT22;61651;45.508;12.232;2023-06-14T03:55:30;21.90;99.90
14008;DHT22;61651;45.508;12.232;2023-06-14T03:58:33;21.90;99.90
14008;DHT22;61651;45.508;12.232;2023-06-14T04:01:35;21.90;99.90
14008;DHT22;61651;45.508;12.232;2023-06-14T04:04:37;22.00;99.90
14008;DHT22;61651;45.508;12.232;2023-06-14T04:07:39;22.00;99.90
14008;DHT22;61651;45.508;12.232;2023-06-14T04:10:46;22.00;99.90
14008;DHT22;61651;45.508;12.232;2023-06-14T04:13:48;22.00;99.90
14008;DHT22;61651;45.508;12.232;2023-06-14T04:16:50;22.00;99.90
14008;DHT22;61651;45.508;12.232;2023-06-14T04:19:52;22.00;99.90
14008;DHT22;61651;45.508;12.232;2023-06-14T04:22:56;22.00;99.90
14008;DHT22;61651;45.508;12.232;2023-06-14T04:26:00;22.00;99.90
14008;DHT22;61651;45.508;12.232;2023-06-14T04:29:03;22.00;99.90
14008;DHT22;61651;45.508;12.232;2023-06-14T04:32:05;22.00;99.90
14008;DHT22;61651;45.508;12.232;2023-06-14T04:35:10;22.00;99.90
14008;DHT22;61651;45.508;12.232;2023-06-14T04:38:12;22.10;99.90
14008;DHT22;61651;45.508;12.232;2023-06-14T04:41:18;22.10;99.90
14008;DHT22;61651;45.508;12.232;2023-06-14T04:44:20;22.20;99.90
14008;DHT22;61651;45.508;12.232;2023-06-14T04:47:24;22.20;99.90
14008;DHT22;61651;45.508;12.232;2023-06-14T04:50:30;22.20;99.90
14008;DHT22;61651;45.508;12.232;2023-06-14T04:53:33;22.20;99.90
14008;DHT22;61651;45.508;12.232;2023-06-14T04:56:37;22.30;99.90
14008;DHT22;61651;45.508;12.232;2023-06-14T04:59:39;22.40;99.90
14008;DHT22;61651;45.508;12.232;2023-06-14T05:02:41;22.40;99.90
14008;DHT22;61651;45.508;12.232;2023-06-14T05:05:43;22.40;99.90
14008;DHT22;61651;45.508;12.232;2023-06-14T05:08:45;22.40;99.90
14008;DHT22;61651;45.508;12.232;2023-06-14T05:11:49;22.50;99.90
14008;DHT22;61651;45.508;12.232;2023-06-14T05:14:51;22.50;99.90
14008;DHT22;61651;45.508;12.232;2023-06-14T05:17:53;22.50;99.90
14008;DHT22;61651;45.508;12.232;2023-06-14T05:20:55;22.60;99.90
14008;DHT22;61651;45.508;12.232;2023-06-14T05:23:57;22.70;99.90
14008;DHT22;61651;45.508;12.232;2023-06-14T05:27:01;22.80;99.90
14008;DHT22;61651;45.508;12.232;2023-06-14T05:30:03;22.80;99.90
14008;DHT22;61651;45.508;12.232;2023-06-14T05:33:05;22.90;99.90
14008;DHT22;61651;45.508;12.232;2023-06-14T05:36:07;23.00;99.90
14008;DHT22;61651;45.508;12.232;2023-06-14T05:39:09;23.10;99.90
14008;DHT22;61651;45.508;12.232;2023-06-14T05:42:13;23.20;99.90
14008;DHT22;61651;45.508;12.232;2023-06-14T05:45:15;23.40;99.90
14008;DHT22;61651;45.508;12.232;2023-06-14T05:48:17;23.40;99.90
14008;DHT22;61651;45.508;12.232;2023-06-14T05:51:19;23.50;99.90
14008;DHT22;61651;45.508;12.232;2023-06-14T05:54:21;23.50;99.90
14008;DHT22;61651;45.508;12.232;2023-06-14T05:57:24;23.60;99.90
14008;DHT22;61651;45.508;12.232;2023-06-14T06:00:27;23.70;99.90
14008;DHT22;61651;45.508;12.232;2023-06-14T06:03:29;23.80;99.90
14008;DHT22;61651;45.508;12.232;2023-06-14T06:06:31;23.80;99.90
14008;DHT22;61651;45.508;12.232;2023-06-14T06:09:34;23.90;99.90
14008;DHT22;61651;45.508;12.232;2023-06-14T06:12:38;23.90;99.90
14008;DHT22;61651;45.508;12.232;2023-06-14T06:15:39;23.90;99.90
14008;DHT22;61651;45.508;12.232;2023-06-14T06:18:41;23.90;99.90
14008;DHT22;61651;45.508;12.232;2023-06-14T06:21:43;23.90;99.90
14008;DHT22;61651;45.508;12.232;2023-06-14T06:24:45;23.90;99.90
14008;DHT22;61651;45.508;12.232;2023-06-14T06:27:49;23.90;99.90
14008;DHT22;61651;45.508;12.232;2023-06-14T06:30:51;24.00;99.90
14008;DHT22;61651;45.508;12.232;2023-06-14T06:33:54;24.00;99.90
14008;DHT22;61651;45.508;12.232;2023-06-14T06:36:56;24.00;99.90
14008;DHT22;61651;45.508;12.232;2023-06-14T06:39:57;24.10;99.90
14008;DHT22;61651;45.508;12.232;2023-06-14T06:43:02;24.20;99.90
14008;DHT22;61651;45.508;12.232;2023-06-14T06:46:04;24.20;99.90
14008;DHT22;61651;45.508;12.232;2023-06-14T06:49:06;24.20;99.90
14008;DHT22;61651;45.508;12.232;2023-06-14T06:52:08;24.20;99.90
14008;DHT22;61651;45.508;12.232;2023-06-14T06:55:10;24.20;99.90
14008;DHT22;61651;45.508;12.232;2023-06-14T06:58:15;24.30;99.90
14008;DHT22;61651;45.508;12.232;2023-06-14T07:01:17;24.30;99.90
14008;DHT22;61651;45.508;12.232;2023-06-14T07:04:19;24.40;99.90
14008;DHT22;61651;45.508;12.232;2023-06-14T07:07:21;24.40;99.90
14008;DHT22;61651;45.508;12.232;2023-06-14T07:10:23;24.40;99.90
14008;DHT22;61651;45.508;12.232;2023-06-14T07:13:26;24.50;99.90
14008;DHT22;61651;45.508;12.232;2023-06-14T07:16:28;24.60;99.90
14008;DHT22;61651;45.508;12.232;2023-06-14T07:19:30;24.70;99.90
14008;DHT22;61651;45.508;12.232;2023-06-14T07:22:33;24.80;99.90
14008;DHT22;61651;45.508;12.232;2023-06-14T07:25:35;24.90;99.90
14008;DHT22;61651;45.508;12.232;2023-06-14T07:28:39;24.90;99.90
14008;DHT22;61651;45.508;12.232;2023-06-14T07:31:41;25.00;99.90
14008;DHT22;61651;45.508;12.232;2023-06-14T07:34:43;25.10;99.90
14008;DHT22;61651;45.508;12.232;2023-06-14T07:37:45;25.10;99.90
14008;DHT22;61651;45.508;12.232;2023-06-14T07:40:47;25.30;99.90
14008;DHT22;61651;45.508;12.232;2023-06-14T07:43:51;25.40;99.90
14008;DHT22;61651;45.508;12.232;2023-06-14T07:46:53;25.40;99.90
14008;DHT22;61651;45.508;12.232;2023-06-14T07:49:58;25.50;99.90
14008;DHT22;61651;45.508;12.232;2023-06-14T07:53:01;25.60;99.90
14008;DHT22;61651;45.508;12.232;2023-06-14T07:56:04;25.70;99.90
14008;DHT22;61651;45.508;12.232;2023-06-14T07:59:07;25.70;99.90
14008;DHT22;61651;45.508;12.232;2023-06-14T08:02:09;25.80;99.90
14008;DHT22;61651;45.508;12.232;2023-06-14T08:05:12;25.90;99.90
14008;DHT22;61651;45.508;12.232;2023-06-14T08:08:15;25.90;99.90
14008;DHT22;61651;45.508;12.232;2023-06-14T08:11:17;26.00;99.90
14008;DHT22;61651;45.508;12.232;2023-06-14T08:14:21;26.10;99.90
14008;DHT22;61651;45.508;12.232;2023-06-14T08:17:23;26.20;99.90
14008;DHT22;61651;45.508;12.232;2023-06-14T08:20:25;26.10;99.90
14008;DHT22;61651;45.508;12.232;2023-06-14T08:23:27;26.20;99.90
14008;DHT22;61651;45.508;12.232;2023-06-14T08:26:30;26.30;99.90
14008;DHT22;61651;45.508;12.232;2023-06-14T08:29:34;26.40;99.90
14008;DHT22;61651;45.508;12.232;2023-06-14T08:32:35;26.50;99.90
14008;DHT22;61651;45.508;12.232;2023-06-14T08:35:37;26.70;99.90
14008;DHT22;61651;45.508;12.232;2023-06-14T08:38:40;26.70;99.90
14008;DHT22;61651;45.508;12.232;2023-06-14T08:41:43;26.80;99.90
14008;DHT22;61651;45.508;12.232;2023-06-14T08:44:48;26.90;99.90
14008;DHT22;61651;45.508;12.232;2023-06-14T08:47:50;26.90;99.90
14008;DHT22;61651;45.508;12.232;2023-06-14T08:50:59;26.90;99.90
14008;DHT22;61651;45.508;12.232;2023-06-14T08:54:04;27.00;99.90
14008;DHT22;61651;45.508;12.232;2023-06-14T08:57:07;27.20;99.90
14008;DHT22;61651;45.508;12.232;2023-06-14T09:00:14;27.30;99.90
14008;DHT22;61651;45.508;12.232;2023-06-14T09:03:17;27.50;99.90
14008;DHT22;61651;45.508;12.232;2023-06-14T09:06:21;27.70;99.90
14008;DHT22;61651;45.508;12.232;2023-06-14T09:09:25;27.80;99.90
14008;DHT22;61651;45.508;12.232;2023-06-14T09:12:27;27.80;99.90
14008;DHT22;61651;45.508;12.232;2023-06-14T09:15:31;27.80;99.90
14008;DHT22;61651;45.508;12.232;2023-06-14T09:18:35;27.90;99.90
14008;DHT22;61651;45.508;12.232;2023-06-14T09:21:37;28.10;99.90
14008;DHT22;61651;45.508;12.232;2023-06-14T09:24:41;28.20;99.90
14008;DHT22;61651;45.508;12.232;2023-06-14T09:27:43;28.30;99.90
14008;DHT22;61651;45.508;12.232;2023-06-14T09:30:48;28.40;99.90
14008;DHT22;61651;45.508;12.232;2023-06-14T09:33:51;28.40;99.90
14008;DHT22;61651;45.508;12.232;2023-06-14T09:36:53;28.40;99.90
14008;DHT22;61651;45.508;12.232;2023-06-14T09:39:55;28.50;99.90
14008;DHT22;61651;45.508;12.232;2023-06-14T09:42:58;28.60;99.90
14008;DHT22;61651;45.508;12.232;2023-06-14T09:46:03;28.60;99.90
14008;DHT22;61651;45.508;12.232;2023-06-14T09:49:06;28.50;99.90
14008;DHT22;61651;45.508;12.232;2023-06-14T09:52:12;28.60;99.90
14008;DHT22;61651;45.508;12.232;2023-06-14T09:55:15;28.50;99.90
14008;DHT22;61651;45.508;12.232;2023-06-14T09:58:19;28.60;99.90
14008;DHT22;61651;45.508;12.232;2023-06-14T10:01:24;28.50;99.90
14008;DHT22;61651;45.508;12.232;2023-06-14T10:04:30;28.80;99.90
14008;DHT22;61651;45.508;12.232;2023-06-14T10:07:37;28.90;99.90
14008;DHT22;61651;45.508;12.232;2023-06-14T10:10:40;29.00;99.90
14008;DHT22;61651;45.508;12.232;2023-06-14T10:13:42;29.00;99.90
14008;DHT22;61651;45.508;12.232;2023-06-14T10:16:49;29.00;99.90
14008;DHT22;61651;45.508;12.232;2023-06-14T10:19:58;29.20;99.90
14008;DHT22;61651;45.508;12.232;2023-06-14T10:23:08;29.50;99.90
14008;DHT22;61651;45.508;12.232;2023-06-14T10:26:23;29.80;99.90
14008;DHT22;61651;45.508;12.232;2023-06-14T10:29:25;29.80;99.90
14008;DHT22;61651;45.508;12.232;2023-06-14T10:32:33;29.90;99.90
14008;DHT22;61651;45.508;12.232;2023-06-14T10:35:36;29.80;99.90
14008;DHT22;61651;45.508;12.232;2023-06-14T10:38:38;29.90;99.90
14008;DHT22;61651;45.508;12.232;2023-06-14T10:41:41;30.00;99.90
14008;DHT22;61651;45.508;12.232;2023-06-14T10:44:46;30.00;99.90
14008;DHT22;61651;45.508;12.232;2023-06-14T10:47:57;30.10;99.90
14008;DHT22;61651;45.508;12.232;2023-06-14T10:51:00;30.20;99.90
14008;DHT22;61651;45.508;12.232;2023-06-14T10:54:03;30.30;99.90
14008;DHT22;61651;45.508;12.232;2023-06-14T10:57:07;30.20;99.90
14008;DHT22;61651;45.508;12.232;2023-06-14T11:00:10;30.20;99.90
14008;DHT22;61651;45.508;12.232;2023-06-14T11:03:45;30.10;99.90
14008;DHT22;61651;45.508;12.232;2023-06-14T11:06:53;29.90;99.90
14008;DHT22;61651;45.508;12.232;2023-06-14T11:10:10;29.90;99.90
14008;DHT22;61651;45.508;12.232;2023-06-14T11:13:17;29.80;99.90
14008;DHT22;61651;45.508;12.232;2023-06-14T11:16:19;29.80;99.90
14008;DHT22;61651;45.508;12.232;2023-06-14T11:19:23;29.90;99.90
14008;DHT22;61651;45.508;12.232;2023-06-14T11:22:25;30.10;99.90
14008;DHT22;61651;45.508;12.232;2023-06-14T11:25:28;30.20;99.90
14008;DHT22;61651;45.508;12.232;2023-06-14T11:28:40;30.30;99.90
14008;DHT22;61651;45.508;12.232;2023-06-14T11:31:43;30.50;99.90
14008;DHT22;61651;45.508;12.232;2023-06-14T11:34:47;30.40;99.90
14008;DHT22;61651;45.508;12.232;2023-06-14T11:37:52;30.60;99.90
14008;DHT22;61651;45.508;12.232;2023-06-14T11:40:59;30.70;99.90
14008;DHT22;61651;45.508;12.232;2023-06-14T11:44:01;30.80;99.90
14008;DHT22;61651;45.508;12.232;2023-06-14T11:47:04;30.90;99.90
14008;DHT22;61651;45.508;12.232;2023-06-14T11:50:08;31.00;99.90
14008;DHT22;61651;45.508;12.232;2023-06-14T11:53:11;30.90;99.90
14008;DHT22;61651;45.508;12.232;2023-06-14T11:56:13;31.00;99.90
14008;DHT22;61651;45.508;12.232;2023-06-14T11:59:16;31.10;99.90
14008;DHT22;61651;45.508;12.232;2023-06-14T12:02:19;31.20;99.90
14008;DHT22;61651;45.508;12.232;2023-06-14T12:05:23;31.40;99.90
14008;DHT22;61651;45.508;12.232;2023-06-14T12:08:32;31.70;99.90
14008;DHT22;61651;45.508;12.232;2023-06-14T12:11:39;31.80;99.90
14008;DHT22;61651;45.508;12.232;2023-06-14T12:14:41;31.80;99.90
14008;DHT22;61651;45.508;12.232;2023-06-14T12:17:44;31.80;99.90
14008;DHT22;61651;45.508;12.232;2023-06-14T12:20:50;31.90;99.90
14008;DHT22;61651;45.508;12.232;2023-06-14T12:23:53;32.10;99.90
14008;DHT22;61651;45.508;12.232;2023-06-14T12:26:57;32.30;99.70
14008;DHT22;61651;45.508;12.232;2023-06-14T12:30:00;32.50;99.70
14008;DHT22;61651;45.508;12.232;2023-06-14T12:33:03;32.70;99.60
14008;DHT22;61651;45.508;12.232;2023-06-14T12:36:07;32.60;98.80
14008;DHT22;61651;45.508;12.232;2023-06-14T12:39:10;32.60;98.90
14008;DHT22;61651;45.508;12.232;2023-06-14T12:42:12;32.50;97.80
14008;DHT22;61651;45.508;12.232;2023-06-14T12:45:15;32.50;99.60
14008;DHT22;61651;45.508;12.232;2023-06-14T12:48:17;31.90;99.90
14008;DHT22;61651;45.508;12.232;2023-06-14T12:51:20;31.70;99.90
14008;DHT22;61651;45.508;12.232;2023-06-14T12:54:23;31.60;99.90
14008;DHT22;61651;45.508;12.232;2023-06-14T12:57:26;31.70;99.90
14008;DHT22;61651;45.508;12.232;2023-06-14T13:00:28;31.60;99.90
14008;DHT22;61651;45.508;12.232;2023-06-14T13:03:31;31.70;99.90
14008;DHT22;61651;45.508;12.232;2023-06-14T13:06:35;32.00;99.90
14008;DHT22;61651;45.508;12.232;2023-06-14T13:09:37;32.10;99.90
14008;DHT22;61651;45.508;12.232;2023-06-14T13:12:39;32.20;99.90
14008;DHT22;61651;45.508;12.232;2023-06-14T13:15:41;32.20;99.90
14008;DHT22;61651;45.508;12.232;2023-06-14T13:18:44;32.00;99.90
14008;DHT22;61651;45.508;12.232;2023-06-14T13:21:47;32.40;99.90
14008;DHT22;61651;45.508;12.232;2023-06-14T13:24:50;32.70;99.90
14008;DHT22;61651;45.508;12.232;2023-06-14T13:27:52;32.50;99.90
14008;DHT22;61651;45.508;12.232;2023-06-14T13:30:53;32.60;99.80
14008;DHT22;61651;45.508;12.232;2023-06-14T13:33:56;33.10;99.90
14008;DHT22;61651;45.508;12.232;2023-06-14T13:36:59;33.50;99.90
14008;DHT22;61651;45.508;12.232;2023-06-14T13:40:01;33.90;99.90
14008;DHT22;61651;45.508;12.232;2023-06-14T13:43:03;34.00;99.60
14008;DHT22;61651;45.508;12.232;2023-06-14T13:46:05;34.10;99.60
14008;DHT22;61651;45.508;12.232;2023-06-14T13:49:07;34.50;99.10
14008;DHT22;61651;45.508;12.232;2023-06-14T13:52:12;35.10;96.90
14008;DHT22;61651;45.508;12.232;2023-06-14T13:55:14;35.40;96.40
14008;DHT22;61651;45.508;12.232;2023-06-14T13:58:16;35.70;97.20
14008;DHT22;61651;45.508;12.232;2023-06-14T14:01:18;34.90;95.30
14008;DHT22;61651;45.508;12.232;2023-06-14T14:04:21;34.60;96.10
14008;DHT22;61651;45.508;12.232;2023-06-14T14:07:24;34.60;97.20
14008;DHT22;61651;45.508;12.232;2023-06-14T14:10:26;35.30;97.20
14008;DHT22;61651;45.508;12.232;2023-06-14T14:13:28;35.70;95.60
14008;DHT22;61651;45.508;12.232;2023-06-14T14:16:30;35.30;95.10
14008;DHT22;61651;45.508;12.232;2023-06-14T14:19:32;35.60;95.80
14008;DHT22;61651;45.508;12.232;2023-06-14T14:22:36;35.70;94.60
14008;DHT22;61651;45.508;12.232;2023-06-14T14:25:38;35.80;94.60
14008;DHT22;61651;45.508;12.232;2023-06-14T14:28:40;35.90;94.10
14008;DHT22;61651;45.508;12.232;2023-06-14T14:31:41;36.20;93.00
14008;DHT22;61651;45.508;12.232;2023-06-14T14:34:43;36.10;91.90
14008;DHT22;61651;45.508;12.232;2023-06-14T14:37:47;36.00;91.90
14008;DHT22;61651;45.508;12.232;2023-06-14T14:40:49;35.70;92.00
14008;DHT22;61651;45.508;12.232;2023-06-14T14:43:51;35.80;91.10
14008;DHT22;61651;45.508;12.232;2023-06-14T14:46:53;36.10;90.50
14008;DHT22;61651;45.508;12.232;2023-06-14T14:49:55;36.30;90.20
14008;DHT22;61651;45.508;12.232;2023-06-14T14:52:59;36.20;88.30
14008;DHT22;61651;45.508;12.232;2023-06-14T14:56:01;36.20;88.60
14008;DHT22;61651;45.508;12.232;2023-06-14T14:59:03;36.20;88.10
14008;DHT22;61651;45.508;12.232;2023-06-14T15:02:05;36.10;88.00
14008;DHT22;61651;45.508;12.232;2023-06-14T15:05:08;36.30;88.40
14008;DHT22;61651;45.508;12.232;2023-06-14T15:08:11;36.30;86.40
14008;DHT22;61651;45.508;12.232;2023-06-14T15:11:13;36.60;89.00
14008;DHT22;61651;45.508;12.232;2023-06-14T15:14:15;36.70;86.80
14008;DHT22;61651;45.508;12.232;2023-06-14T15:17:17;36.60;85.30
14008;DHT22;61651;45.508;12.232;2023-06-14T15:20:20;36.30;85.60
14008;DHT22;61651;45.508;12.232;2023-06-14T15:23:23;36.10;84.50
14008;DHT22;61651;45.508;12.232;2023-06-14T15:26:25;35.70;83.40
14008;DHT22;61651;45.508;12.232;2023-06-14T15:29:28;35.90;84.00
14008;DHT22;61651;45.508;12.232;2023-06-14T15:32:30;36.00;82.50
14008;DHT22;61651;45.508;12.232;2023-06-14T15:35:32;35.80;82.40
14008;DHT22;61651;45.508;12.232;2023-06-14T15:38:35;35.50;80.20
14008;DHT22;61651;45.508;12.232;2023-06-14T15:41:37;35.30;78.90
14008;DHT22;61651;45.508;12.232;2023-06-14T15:44:39;35.20;81.90
14008;DHT22;61651;45.508;12.232;2023-06-14T15:47:43;34.70;81.90
14008;DHT22;61651;45.508;12.232;2023-06-14T15:50:46;34.50;82.10
14008;DHT22;61651;45.508;12.232;2023-06-14T15:53:49;33.90;81.30
14008;DHT22;61651;45.508;12.232;2023-06-14T15:56:52;33.90;84.50
14008;DHT22;61651;45.508;12.232;2023-06-14T15:59:54;33.90;85.40
14008;DHT22;61651;45.508;12.232;2023-06-14T16:02:56;33.60;80.60
14008;DHT22;61651;45.508;12.232;2023-06-14T16:05:58;33.40;84.10
14008;DHT22;61651;45.508;12.232;2023-06-14T16:09:02;33.20;83.20
14008;DHT22;61651;45.508;12.232;2023-06-14T16:12:05;33.00;84.80
14008;DHT22;61651;45.508;12.232;2023-06-14T16:15:08;33.10;84.70
14008;DHT22;61651;45.508;12.232;2023-06-14T16:18:10;32.90;85.30
14008;DHT22;61651;45.508;12.232;2023-06-14T16:21:13;32.30;87.60
14008;DHT22;61651;45.508;12.232;2023-06-14T16:24:16;31.60;87.60
14008;DHT22;61651;45.508;12.232;2023-06-14T16:27:18;31.30;87.20
14008;DHT22;61651;45.508;12.232;2023-06-14T16:30:20;31.20;88.80
14008;DHT22;61651;45.508;12.232;2023-06-14T16:33:23;30.80;88.80
14008;DHT22;61651;45.508;12.232;2023-06-14T16:36:25;30.60;90.10
14008;DHT22;61651;45.508;12.232;2023-06-14T16:39:29;30.50;90.60
14008;DHT22;61651;45.508;12.232;2023-06-14T16:42:31;30.40;90.90
14008;DHT22;61651;45.508;12.232;2023-06-14T16:45:33;30.50;91.90
14008;DHT22;61651;45.508;12.232;2023-06-14T16:48:35;30.50;92.00
14008;DHT22;61651;45.508;12.232;2023-06-14T16:51:38;30.30;91.60
14008;DHT22;61651;45.508;12.232;2023-06-14T16:54:43;30.30;91.60
14008;DHT22;61651;45.508;12.232;2023-06-14T16:57:45;30.10;91.00
14008;DHT22;61651;45.508;12.232;2023-06-14T17:00:47;30.00;91.60
14008;DHT22;61651;45.508;12.232;2023-06-14T17:03:50;29.90;90.80
14008;DHT22;61651;45.508;12.232;2023-06-14T17:06:52;29.80;91.00
14008;DHT22;61651;45.508;12.232;2023-06-14T17:09:55;29.80;91.50
14008;DHT22;61651;45.508;12.232;2023-06-14T17:28:39;29.30;93.30
14008;DHT22;61651;45.508;12.232;2023-06-14T17:31:41;29.20;93.40
14008;DHT22;61651;45.508;12.232;2023-06-14T17:34:43;29.10;94.00
14008;DHT22;61651;45.508;12.232;2023-06-14T17:37:45;29.00;94.10
14008;DHT22;61651;45.508;12.232;2023-06-14T17:40:47;28.80;93.60
14008;DHT22;61651;45.508;12.232;2023-06-14T17:43:50;28.70;93.00
14008;DHT22;61651;45.508;12.232;2023-06-14T17:46:52;28.60;93.20
14008;DHT22;61651;45.508;12.232;2023-06-14T17:49:54;28.60;93.50
14008;DHT22;61651;45.508;12.232;2023-06-14T17:52:56;28.50;93.90
14008;DHT22;61651;45.508;12.232;2023-06-14T17:56:02;28.40;94.20
14008;DHT22;61651;45.508;12.232;2023-06-14T17:59:06;28.40;95.00
14008;DHT22;61651;45.508;12.232;2023-06-14T18:02:09;28.40;95.10
14008;DHT22;61651;45.508;12.232;2023-06-14T18:05:11;28.10;94.80
14008;DHT22;61651;45.508;12.232;2023-06-14T18:08:13;28.00;95.00
14008;DHT22;61651;45.508;12.232;2023-06-14T18:11:15;28.10;95.50
14008;DHT22;61651;45.508;12.232;2023-06-14T18:14:19;28.20;95.10
14008;DHT22;61651;45.508;12.232;2023-06-14T18:17:21;28.20;95.40
14008;DHT22;61651;45.508;12.232;2023-06-14T18:20:23;28.20;95.70
14008;DHT22;61651;45.508;12.232;2023-06-14T18:23:25;28.20;95.80
14008;DHT22;61651;45.508;12.232;2023-06-14T18:26:27;28.10;96.00
14008;DHT22;61651;45.508;12.232;2023-06-14T18:29:31;28.10;96.20
14008;DHT22;61651;45.508;12.232;2023-06-14T18:32:34;28.00;96.60
14008;DHT22;61651;45.508;12.232;2023-06-14T18:35:36;28.00;97.20
14008;DHT22;61651;45.508;12.232;2023-06-14T18:38:38;27.90;97.10
14008;DHT22;61651;45.508;12.232;2023-06-14T18:41:40;27.90;97.40
14008;DHT22;61651;45.508;12.232;2023-06-14T18:44:43;27.80;97.80
14008;DHT22;61651;45.508;12.232;2023-06-14T18:47:45;27.80;98.00
14008;DHT22;61651;45.508;12.232;2023-06-14T18:50:48;27.70;98.30
14008;DHT22;61651;45.508;12.232;2023-06-14T18:53:49;27.60;98.70
14008;DHT22;61651;45.508;12.232;2023-06-14T18:56:52;27.50;99.10
14008;DHT22;61651;45.508;12.232;2023-06-14T18:59:55;27.40;99.50
14008;DHT22;61651;45.508;12.232;2023-06-14T19:02:57;27.40;99.90
14008;DHT22;61651;45.508;12.232;2023-06-14T19:05:59;27.30;99.90
14008;DHT22;61651;45.508;12.232;2023-06-14T19:09:01;27.20;99.90
14008;DHT22;61651;45.508;12.232;2023-06-14T19:12:04;27.20;99.90